Time;durP1;ratioP1;P1;durP2;ratioP2;P2;SDS_P1;SDS_P2;PMS_P1;PMS_P2;Temp;Humidity;BMP_temperature;BMP_pressure;BME280_temperature;BME280_humidity;BME280_pressure;Samples;Min_cycle;Max_cycle;Signal;HPM_P1;HPM_P2
2021/09/10 00:01:59;;;;;;;6.42;3.08;;;;;;;16.77;51.93;96716.42;1679134;84;21067;-82
2021/09/10 00:04:25;;;;;;;3.45;2.50;;;;;;;16.81;51.60;96724.67;1683963;84;21062;-82
2021/09/10 00:06:51;;;;;;;3.55;2.47;;;;;;;16.83;50.74;96725.77;1699878;84;21048;-82
2021/09/10 00:09:18;;;;;;;4.95;2.60;;;;;;;16.88;50.80;96728.55;1664155;84;21366;-83
2021/09/10 00:11:43;;;;;;;3.87;2.47;;;;;;;16.94;50.60;96725.09;1680241;84;21015;-83
2021/09/10 00:14:09;;;;;;;4.10;2.55;;;;;;;16.98;50.70;96716.57;1692092;84;21053;-82
2021/09/10 00:16:35;;;;;;;3.45;2.00;;;;;;;17.03;50.05;96731.67;1668694;85;21044;-83
2021/09/10 00:19:01;;;;;;;5.45;2.50;;;;;;;17.06;49.88;96729.41;1686738;84;21040;-82
2021/09/10 00:21:27;;;;;;;4.87;2.17;;;;;;;17.08;50.74;96733.14;1685162;84;21003;-83
2021/09/10 00:23:52;;;;;;;4.15;2.52;;;;;;;17.01;50.61;96721.39;1683731;84;21433;-83
2021/09/10 00:26:18;;;;;;;4.40;2.22;;;;;;;17.00;49.94;96724.23;1684458;84;21003;-83
2021/09/10 00:28:44;;;;;;;4.95;2.85;;;;;;;17.04;49.43;96725.41;1693580;83;21012;-83
2021/09/10 00:31:10;;;;;;;3.40;2.47;;;;;;;17.08;49.64;96724.78;1702651;83;21016;-83
2021/09/10 00:33:35;;;;;;;5.75;2.65;;;;;;;17.12;50.71;96724.34;1703319;82;21443;-83
2021/09/10 00:36:01;;;;;;;5.15;2.25;;;;;;;17.09;50.75;96725.08;1696485;83;20982;-83
2021/09/10 00:38:27;;;;;;;4.12;2.52;;;;;;;17.03;51.12;96728.53;1696493;83;20957;-83
2021/09/10 00:40:53;;;;;;;6.58;2.58;;;;;;;16.97;50.59;96725.97;1700738;84;21079;-83
2021/09/10 00:43:18;;;;;;;3.92;2.52;;;;;;;16.98;50.80;96726.27;1688614;84;21047;-83
2021/09/10 00:45:45;;;;;;;4.80;2.30;;;;;;;16.96;50.17;96723.05;1661193;85;20976;-83
2021/09/10 00:48:11;;;;;;;4.15;2.72;;;;;;;16.94;51.46;96726.41;1669855;85;21078;-83
2021/09/10 00:50:38;;;;;;;4.22;2.35;;;;;;;16.91;50.63;96727.61;1672548;84;21100;-83
2021/09/10 00:53:04;;;;;;;4.10;2.20;;;;;;;16.91;51.34;96732.05;1664279;84;21059;-84
2021/09/10 00:55:30;;;;;;;4.42;2.75;;;;;;;16.84;49.83;96733.42;1678179;85;21011;-83
2021/09/10 00:57:55;;;;;;;3.10;2.37;;;;;;;16.92;50.46;96732.35;1655132;84;21067;-83
2021/09/10 01:00:21;;;;;;;2.77;2.20;;;;;;;16.91;50.75;96726.81;1672663;84;21027;-83
2021/09/10 01:02:47;;;;;;;5.15;2.35;;;;;;;16.85;51.58;96721.91;1684078;84;21097;-83
2021/09/10 01:05:13;;;;;;;3.20;2.20;;;;;;;16.80;51.04;96717.81;1692045;84;21027;-83
2021/09/10 01:07:41;;;;;;;4.50;2.40;;;;;;;16.76;51.46;96727.94;1700482;84;21031;-83
2021/09/10 01:10:08;;;;;;;3.62;2.10;;;;;;;16.67;51.43;96726.57;1652582;84;21015;-83
2021/09/10 01:12:34;;;;;;;3.80;2.60;;;;;;;16.58;52.78;96723.86;1673898;84;21450;-83
2021/09/10 01:15:01;;;;;;;3.95;2.20;;;;;;;16.53;51.95;96725.52;1684582;84;21102;-83
2021/09/10 01:17:27;;;;;;;3.30;2.47;;;;;;;16.49;51.24;96729.07;1690755;84;21086;-83
2021/09/10 01:19:53;;;;;;;6.47;2.25;;;;;;;16.53;51.80;96730.25;1664542;85;21477;-83
2021/09/10 01:22:18;;;;;;;3.50;2.47;;;;;;;16.50;51.96;96730.67;1673192;85;21049;-83
2021/09/10 01:25:11;;;;;;;5.45;2.20;;;;;;;16.46;52.28;96729.50;1680718;84;21016;-83
2021/09/10 01:27:34;;;;;;;4.03;2.40;;;;;;;16.47;50.91;96729.28;1703108;84;21018;-83
2021/09/10 01:30:00;;;;;;;3.17;2.52;;;;;;;16.50;51.16;96735.41;1679493;84;21116;-83
2021/09/10 01:32:26;;;;;;;4.35;2.42;;;;;;;16.51;51.33;96729.16;1682246;84;21544;-84
2021/09/10 01:34:52;;;;;;;4.53;2.45;;;;;;;16.53;51.97;96733.38;1693212;84;21076;-83
2021/09/10 01:37:18;;;;;;;3.30;2.27;;;;;;;16.51;51.56;96732.28;1667723;84;21040;-83
2021/09/10 01:39:44;;;;;;;4.45;2.65;;;;;;;16.47;51.98;96730.59;1679128;84;21474;-83
2021/09/10 01:42:09;;;;;;;4.67;2.25;;;;;;;16.48;51.07;96733.52;1663750;85;21238;-83
2021/09/10 01:44:35;;;;;;;3.67;2.40;;;;;;;16.53;50.96;96736.81;1686261;84;21152;-83
2021/09/10 01:47:01;;;;;;;4.92;2.67;;;;;;;16.54;52.23;96739.73;1670777;84;21134;-83
2021/09/10 01:49:27;;;;;;;3.00;2.22;;;;;;;16.48;51.58;96732.71;1684430;84;21065;-83
2021/09/10 01:51:53;;;;;;;5.50;2.40;;;;;;;16.43;52.40;96731.20;1695250;84;21018;-83
2021/09/10 01:54:19;;;;;;;3.42;2.30;;;;;;;16.38;52.44;96736.28;1685493;84;21066;-83
2021/09/10 01:56:44;;;;;;;4.53;2.55;;;;;;;16.35;52.42;96739.33;1687302;84;21505;-84
2021/09/10 01:59:10;;;;;;;4.12;2.42;;;;;;;16.32;52.71;96731.88;1685638;83;20985;-83
2021/09/10 02:01:36;;;;;;;5.50;2.17;;;;;;;16.27;51.99;96736.45;1686958;84;20997;-83
2021/09/10 02:04:02;;;;;;;4.10;2.45;;;;;;;16.28;51.62;96734.13;1695973;84;21039;-83
2021/09/10 02:06:28;;;;;;;4.75;2.50;;;;;;;16.35;52.84;96730.95;1695931;84;21025;-83
2021/09/10 02:08:53;;;;;;;4.50;2.40;;;;;;;16.27;53.04;96733.83;1664190;85;21311;-83
2021/09/10 02:11:19;;;;;;;3.60;1.98;;;;;;;16.20;52.58;96735.15;1684428;84;21389;-83
2021/09/10 02:13:45;;;;;;;5.03;2.37;;;;;;;16.19;52.83;96730.92;1667865;84;21468;-83
2021/09/10 02:16:11;;;;;;;4.33;2.40;;;;;;;16.21;51.97;96728.09;1683549;84;21029;-83
2021/09/10 02:18:41;;;;;;;5.92;2.17;;;;;;;16.29;52.21;96738.86;1678130;84;21175;-83
2021/09/10 02:21:06;;;;;;;5.10;2.10;;;;;;;16.31;51.50;96732.39;1669696;84;21090;-83
2021/09/10 02:23:33;;;;;;;5.30;2.27;;;;;;;16.36;51.68;96726.51;1686686;84;21034;-83
2021/09/10 02:25:59;;;;;;;3.37;2.27;;;;;;;16.38;51.46;96733.66;1676448;84;21083;-83
2021/09/10 02:28:25;;;;;;;2.95;2.08;;;;;;;16.42;51.91;96734.33;1663872;85;21007;-83
2021/09/10 02:30:52;;;;;;;5.50;2.35;;;;;;;16.45;52.18;96729.20;1669636;84;21060;-83
2021/09/10 02:33:18;;;;;;;3.35;2.42;;;;;;;16.45;51.14;96730.52;1676054;84;21011;-83
2021/09/10 02:35:43;;;;;;;4.15;2.30;;;;;;;16.47;51.06;96731.10;1660109;84;21121;-83
2021/09/10 02:38:09;;;;;;;3.50;2.05;;;;;;;16.45;52.18;96728.70;1683598;84;20992;-83
2021/09/10 02:40:35;;;;;;;4.90;2.45;;;;;;;16.42;51.99;96733.53;1684741;84;21094;-83
2021/09/10 02:43:01;;;;;;;3.85;2.30;;;;;;;16.35;52.74;96730.95;1685309;85;21470;-83
2021/09/10 02:45:26;;;;;;;3.40;2.25;;;;;;;16.29;51.50;96729.69;1695719;84;21062;-83
2021/09/10 02:47:52;;;;;;;3.98;2.35;;;;;;;16.34;51.77;96726.72;1701721;84;21021;-83
2021/09/10 02:50:18;;;;;;;3.47;1.98;;;;;;;16.34;51.95;96725.92;1695604;84;21065;-83
2021/09/10 02:52:44;;;;;;;4.15;2.20;;;;;;;16.33;50.40;96728.25;1700937;83;21026;-83
2021/09/10 02:55:10;;;;;;;2.98;1.95;;;;;;;16.39;51.52;96726.89;1675805;84;21206;-83
2021/09/10 02:57:36;;;;;;;4.87;2.58;;;;;;;16.37;51.68;96726.30;1692674;83;21012;-83
2021/09/10 03:00:03;;;;;;;4.03;2.33;;;;;;;16.35;51.04;96731.46;1689758;83;21023;-83
2021/09/10 03:02:29;;;;;;;6.45;2.37;;;;;;;16.34;50.66;96733.78;1694010;84;21081;-83
2021/09/10 03:04:55;;;;;;;5.03;2.20;;;;;;;16.38;51.18;96729.72;1705759;83;21059;-83
2021/09/10 03:07:20;;;;;;;4.42;2.17;;;;;;;16.37;51.59;96734.16;1697328;83;21437;-83
2021/09/10 03:09:48;;;;;;;3.58;2.20;;;;;;;16.33;51.22;96727.73;1690950;84;21052;-83
2021/09/10 03:12:14;;;;;;;3.50;2.30;;;;;;;16.30;51.54;96731.29;1695899;84;21386;-83
2021/09/10 03:14:39;;;;;;;3.65;2.40;;;;;;;16.25;51.88;96731.09;1694538;84;21023;-83
2021/09/10 03:17:05;;;;;;;5.85;2.45;;;;;;;16.20;52.07;96730.41;1695805;83;21102;-83
2021/09/10 03:19:32;;;;;;;3.80;2.40;;;;;;;16.17;52.32;96729.52;1686902;84;20989;-83
2021/09/10 03:21:57;;;;;;;4.85;2.50;;;;;;;16.16;51.95;96729.23;1682313;84;21409;-83
2021/09/10 03:24:23;;;;;;;3.35;2.00;;;;;;;16.14;52.03;96729.44;1667539;84;21055;-84
2021/09/10 03:26:49;;;;;;;3.83;2.52;;;;;;;16.13;52.10;96732.27;1691963;83;21005;-83
2021/09/10 03:29:15;;;;;;;6.85;2.33;;;;;;;16.11;51.15;96723.31;1656788;84;21092;-83
2021/09/10 03:31:41;;;;;;;4.03;2.70;;;;;;;16.18;51.50;96728.00;1677301;83;21373;-83
2021/09/10 03:34:06;;;;;;;4.60;2.40;;;;;;;16.22;51.89;96733.63;1679467;84;21034;-83
2021/09/10 03:36:32;;;;;;;5.80;2.47;;;;;;;16.19;51.86;96727.50;1700670;83;20994;-83
2021/09/10 03:38:58;;;;;;;5.10;2.30;;;;;;;16.19;51.50;96722.25;1680446;84;21066;-83
2021/09/10 03:41:24;;;;;;;3.85;2.05;;;;;;;16.17;52.61;96725.09;1717729;83;21043;-83
2021/09/10 03:43:52;;;;;;;3.67;2.17;;;;;;;16.18;50.97;96724.07;1682677;84;21016;-83
2021/09/10 03:46:17;;;;;;;3.90;2.45;;;;;;;16.21;52.48;96730.20;1672727;85;21067;-83
2021/09/10 03:48:43;;;;;;;3.72;2.12;;;;;;;16.18;52.18;96730.63;1693667;84;21087;-83
2021/09/10 03:51:09;;;;;;;6.33;2.83;;;;;;;16.18;51.75;96730.63;1719974;83;21023;-83
2021/09/10 03:53:34;;;;;;;4.08;2.22;;;;;;;16.22;51.12;96725.77;1679729;84;20973;-83
2021/09/10 03:56:00;;;;;;;4.40;2.33;;;;;;;16.27;51.03;96730.38;1663563;85;21053;-83
2021/09/10 03:58:26;;;;;;;8.40;3.98;;;;;;;16.26;51.96;96732.19;1671093;84;21045;-83
2021/09/10 04:00:52;;;;;;;3.05;2.17;;;;;;;16.22;52.15;96725.77;1685813;84;21094;-83
2021/09/10 04:03:17;;;;;;;3.17;2.33;;;;;;;16.15;51.69;96731.05;1666046;85;21134;-83
2021/09/10 04:05:43;;;;;;;5.60;2.50;;;;;;;16.13;51.40;96725.21;1694453;84;21442;-83
2021/09/10 04:08:09;;;;;;;4.17;2.60;;;;;;;16.15;51.76;96729.73;1679611;84;21339;-83
2021/09/10 04:10:35;;;;;;;4.30;2.40;;;;;;;16.18;52.32;96729.82;1701488;84;21449;-83
2021/09/10 04:13:02;;;;;;;4.47;2.42;;;;;;;16.13;52.23;96732.27;1688047;84;21040;-83
2021/09/10 04:15:28;;;;;;;4.17;2.70;;;;;;;16.12;52.05;96724.91;1685326;84;21063;-83
2021/09/10 04:17:54;;;;;;;12.00;3.37;;;;;;;16.18;51.75;96729.82;1690840;84;21507;-83
2021/09/10 04:20:20;;;;;;;4.58;2.27;;;;;;;16.22;52.39;96731.00;1675618;84;21021;-83
2021/09/10 04:22:45;;;;;;;4.75;2.27;;;;;;;16.19;51.73;96734.86;1678051;84;21046;-83
2021/09/10 04:25:11;;;;;;;4.25;2.33;;;;;;;16.17;52.16;96729.02;1661811;85;21029;-83
2021/09/10 04:27:37;;;;;;;6.15;2.58;;;;;;;16.15;52.65;96728.42;1679485;84;21407;-83
2021/09/10 04:30:05;;;;;;;2.98;1.77;;;;;;;16.14;51.69;96737.81;1671501;84;21036;-83
2021/09/10 04:32:31;;;;;;;5.08;2.70;;;;;;;16.11;52.03;96735.61;1678527;84;21036;-83
2021/09/10 04:34:57;;;;;;;5.17;2.17;;;;;;;16.15;52.06;96734.98;1673103;84;21015;-83
2021/09/10 04:37:23;;;;;;;4.45;2.40;;;;;;;16.14;52.70;96734.68;1679922;85;21015;-83
2021/09/10 04:39:49;;;;;;;5.42;2.70;;;;;;;16.11;52.63;96739.03;1693103;84;21375;-84
2021/09/10 04:42:16;;;;;;;5.22;2.90;;;;;;;16.09;51.76;96729.23;1702105;84;20997;-83
2021/09/10 04:44:41;;;;;;;3.72;2.35;;;;;;;16.17;52.40;96729.52;1664350;85;21368;-83
2021/09/10 04:47:07;;;;;;;4.75;2.40;;;;;;;16.16;53.02;96737.09;1671331;84;21035;-83
2021/09/10 04:49:34;;;;;;;4.00;2.50;;;;;;;16.14;52.89;96732.06;1683450;84;21095;-83
2021/09/10 04:52:00;;;;;;;4.20;2.15;;;;;;;16.09;53.06;96733.67;1686136;84;21056;-83
2021/09/10 04:54:27;;;;;;;4.25;2.52;;;;;;;16.01;53.54;96736.03;1680182;84;21059;-83
2021/09/10 04:56:52;;;;;;;6.12;2.80;;;;;;;15.99;53.34;96736.75;1691848;84;21079;-83
2021/09/10 04:59:18;;;;;;;4.03;2.87;;;;;;;16.01;53.38;96737.34;1696062;84;21465;-83
2021/09/10 05:01:44;;;;;;;6.83;2.87;;;;;;;15.99;53.91;96738.06;1683884;84;21073;-83
2021/09/10 05:04:10;;;;;;;3.62;2.30;;;;;;;15.92;53.62;96739.88;1674241;84;21027;-83
2021/09/10 05:06:36;;;;;;;3.90;2.35;;;;;;;15.87;54.19;96744.95;1684228;84;20999;-83
2021/09/10 05:09:02;;;;;;;3.90;2.35;;;;;;;15.83;54.23;96741.13;1660749;85;21056;-83
2021/09/10 05:11:28;;;;;;;4.42;2.50;;;;;;;15.82;54.18;96742.14;1673705;84;21378;-83
2021/09/10 05:13:54;;;;;;;3.83;2.10;;;;;;;15.79;54.74;96747.30;1681765;84;20994;-83
2021/09/10 05:16:20;;;;;;;3.83;2.40;;;;;;;15.75;54.43;96740.03;1681747;84;21099;-83
2021/09/10 05:18:46;;;;;;;4.30;2.60;;;;;;;15.72;54.42;96747.80;1703391;84;21020;-83
2021/09/10 05:21:11;;;;;;;5.55;2.45;;;;;;;15.73;53.79;96747.30;1692297;84;21126;-83
2021/09/10 05:23:37;;;;;;;6.28;2.60;;;;;;;15.77;54.56;96747.17;1684107;84;21107;-83
2021/09/10 05:26:03;;;;;;;3.02;2.27;;;;;;;15.76;54.84;96750.30;1702883;83;20948;-83
2021/09/10 05:28:29;;;;;;;3.37;2.30;;;;;;;15.74;54.76;96740.53;1698654;83;21067;-83
2021/09/10 05:30:54;;;;;;;2.95;1.92;;;;;;;15.71;55.39;96744.88;1676781;84;21028;-83
2021/09/10 05:33:24;;;;;;;2.83;1.80;;;;;;;15.70;54.83;96748.52;1677702;84;21083;-83
2021/09/10 05:35:49;;;;;;;4.85;2.27;;;;;;;15.72;55.48;96747.80;1693599;84;21521;-83
2021/09/10 05:38:15;;;;;;;6.55;2.80;;;;;;;15.71;55.08;96746.70;1697215;84;21079;-83
2021/09/10 05:40:41;;;;;;;4.33;2.50;;;;;;;15.72;55.24;96743.88;1675219;85;21144;-83
2021/09/10 05:43:07;;;;;;;7.22;2.92;;;;;;;15.75;56.15;96747.89;1676117;85;21143;-83
2021/09/10 05:45:32;;;;;;;3.33;2.22;;;;;;;15.71;56.25;96745.39;1686956;84;21669;-83
2021/09/10 05:47:58;;;;;;;3.85;2.70;;;;;;;15.68;56.54;96744.48;1685447;84;21054;-83
2021/09/10 05:50:25;;;;;;;4.37;2.47;;;;;;;15.65;56.74;96745.71;1696364;84;21035;-83
2021/09/10 05:52:50;;;;;;;3.67;2.72;;;;;;;15.63;56.92;96745.62;1684141;84;21368;-83
2021/09/10 05:55:16;;;;;;;3.45;2.15;;;;;;;15.62;57.99;96747.44;1678191;84;21099;-83
2021/09/10 05:57:42;;;;;;;4.28;2.77;;;;;;;15.60;57.16;96756.78;1660881;85;21075;-83
2021/09/10 06:00:10;;;;;;;3.20;2.90;;;;;;;15.61;58.33;96754.96;1682229;83;20965;-83
2021/09/10 06:02:36;;;;;;;4.15;2.35;;;;;;;15.60;58.79;96759.39;1694384;84;20987;-83
2021/09/10 06:05:01;;;;;;;3.25;2.05;;;;;;;15.58;58.49;96765.31;1680538;84;21066;-83
2021/09/10 06:07:27;;;;;;;4.25;2.20;;;;;;;15.57;57.92;96762.91;1673326;84;21454;-83
2021/09/10 06:09:53;;;;;;;2.98;2.20;;;;;;;15.61;58.46;96760.20;1687765;84;21091;-83
2021/09/10 06:12:19;;;;;;;3.40;2.22;;;;;;;15.64;58.38;96765.56;1668748;85;21110;-83
2021/09/10 06:14:45;;;;;;;2.40;2.20;;;;;;;15.65;58.05;96765.86;1692915;84;21132;-83
2021/09/10 06:17:11;;;;;;;5.65;2.45;;;;;;;15.68;59.10;96761.02;1697941;83;21472;-83
2021/09/10 06:19:36;;;;;;;7.37;2.52;;;;;;;15.70;57.57;96769.97;1693424;83;20996;-83
2021/09/10 06:22:02;;;;;;;2.92;2.20;;;;;;;15.73;59.00;96771.67;1688934;83;21393;-83
2021/09/10 06:24:28;;;;;;;3.83;2.10;;;;;;;15.72;59.29;96767.95;1657681;84;21515;-83
2021/09/10 06:26:54;;;;;;;6.60;2.70;;;;;;;15.71;58.21;96773.70;1657702;85;21034;-83
2021/09/10 06:29:20;;;;;;;4.08;2.55;;;;;;;15.79;58.59;96771.38;1654711;85;21009;-83
2021/09/10 06:31:47;;;;;;;3.20;2.00;;;;;;;15.82;59.64;96773.59;1654972;85;21012;-83
2021/09/10 06:34:18;;;;;;;2.87;2.08;;;;;;;15.81;57.84;96771.47;1666967;84;20990;-83
2021/09/10 06:36:41;;;;;;;4.65;2.30;;;;;;;15.90;59.42;96768.11;1667712;84;21004;-83
2021/09/10 06:39:06;;;;;;;3.42;2.60;;;;;;;15.93;58.93;96774.25;1666796;85;21400;-83
2021/09/10 06:41:32;;;;;;;3.95;2.77;;;;;;;15.99;58.12;96775.27;1691407;84;21005;-83
2021/09/10 06:43:58;;;;;;;4.97;2.62;;;;;;;16.06;59.12;96779.46;1670492;84;21008;-83
2021/09/10 06:46:23;;;;;;;3.02;2.50;;;;;;;16.11;58.36;96773.62;1661776;85;21028;-83
2021/09/10 06:48:49;;;;;;;7.03;2.30;;;;;;;16.17;58.59;96781.45;1683017;83;21030;-83
2021/09/10 06:51:16;;;;;;;3.30;2.08;;;;;;;16.25;56.31;96778.29;1688042;84;21469;-83
2021/09/10 06:53:41;;;;;;;5.58;3.02;;;;;;;16.39;55.89;96777.23;1705782;84;20983;-83
2021/09/10 06:56:07;;;;;;;5.70;2.60;;;;;;;16.47;57.88;96779.12;1702363;84;21015;-83
2021/09/10 06:58:33;;;;;;;5.42;2.80;;;;;;;16.51;58.01;96783.44;1685526;84;21000;-83
2021/09/10 07:00:59;;;;;;;3.85;2.08;;;;;;;16.53;57.86;96784.02;1701807;84;20983;-83
2021/09/10 07:03:25;;;;;;;3.83;2.10;;;;;;;16.57;57.54;96788.34;1662295;85;21028;-83
2021/09/10 07:05:51;;;;;;;5.03;2.60;;;;;;;16.57;58.37;96785.72;1690906;84;21085;-83
2021/09/10 07:08:17;;;;;;;6.37;2.98;;;;;;;16.60;57.07;96789.26;1675693;84;21027;-83
2021/09/10 07:10:43;;;;;;;7.08;2.12;;;;;;;16.65;57.58;96787.61;1681451;85;21506;-83
2021/09/10 07:13:08;;;;;;;4.87;2.40;;;;;;;16.69;56.93;96792.75;1668968;84;21079;-83
2021/09/10 07:15:34;;;;;;;4.42;2.83;;;;;;;16.73;56.78;96792.63;1682883;84;20969;-83
2021/09/10 07:18:00;;;;;;;3.02;2.55;;;;;;;16.79;58.04;96793.12;1684654;84;21485;-83
2021/09/10 07:20:26;;;;;;;3.55;2.58;;;;;;;16.83;57.66;96796.62;1697644;84;21069;-83
2021/09/10 07:22:52;;;;;;;2.60;2.00;;;;;;;16.85;58.31;96791.45;1679271;84;21135;-83
2021/09/10 07:25:18;;;;;;;4.58;2.90;;;;;;;16.90;56.97;96793.44;1698782;84;21104;-83
2021/09/10 07:27:44;;;;;;;6.15;2.98;;;;;;;16.94;56.94;96796.77;1676880;84;20995;-83
2021/09/10 07:30:11;;;;;;;6.12;2.95;;;;;;;16.98;58.29;96792.70;1665158;85;21001;-83
2021/09/10 07:32:36;;;;;;;3.00;2.33;;;;;;;17.01;57.51;96794.89;1685199;84;21367;-83
2021/09/10 07:35:03;;;;;;;3.30;3.00;;;;;;;17.06;57.96;96795.56;1663476;85;21117;-83
2021/09/10 07:37:30;;;;;;;4.28;2.50;;;;;;;17.09;58.09;96795.96;1657618;85;21475;-83
2021/09/10 07:39:56;;;;;;;4.55;2.17;;;;;;;17.14;58.25;96801.08;1681455;84;21111;-83
2021/09/10 07:42:22;;;;;;;4.25;2.90;;;;;;;17.23;55.49;96802.41;1675691;84;21089;-83
2021/09/10 07:44:49;;;;;;;3.35;2.27;;;;;;;17.34;55.94;96797.28;1679410;84;21440;-83
2021/09/10 07:47:15;;;;;;;3.62;2.45;;;;;;;17.39;56.67;96801.38;1679547;85;21068;-83
2021/09/10 07:49:42;;;;;;;5.03;2.58;;;;;;;17.47;56.75;96801.64;1669056;84;21021;-83
2021/09/10 07:52:08;;;;;;;3.45;2.10;;;;;;;17.50;56.94;96798.57;1656902;85;21113;-83
2021/09/10 07:54:34;;;;;;;3.27;2.00;;;;;;;17.53;56.99;96801.28;1680646;84;21025;-83
2021/09/10 07:57:00;;;;;;;3.25;2.02;;;;;;;17.56;56.92;96805.58;1679325;84;21056;-83
2021/09/10 07:59:26;;;;;;;3.98;2.27;;;;;;;17.60;57.20;96805.47;1676898;84;21015;-83
2021/09/10 08:01:51;;;;;;;5.37;2.60;;;;;;;17.68;56.59;96801.27;1695742;84;21102;-83
2021/09/10 08:04:17;;;;;;;3.90;2.52;;;;;;;17.78;54.84;96798.16;1682192;84;21106;-83
2021/09/10 08:06:43;;;;;;;3.65;2.33;;;;;;;17.88;55.72;96801.59;1689102;84;21147;-83
2021/09/10 08:09:09;;;;;;;6.28;2.60;;;;;;;17.95;54.92;96803.66;1695488;84;21075;-83
2021/09/10 08:11:35;;;;;;;4.80;2.30;;;;;;;18.09;55.20;96800.39;1681944;84;21052;-83
2021/09/10 08:14:03;;;;;;;3.40;2.40;;;;;;;18.17;55.31;96804.03;1674528;84;21105;-83
2021/09/10 08:16:28;;;;;;;5.40;2.47;;;;;;;18.28;53.24;96810.69;1699750;84;21483;-83
2021/09/10 08:18:54;;;;;;;3.72;2.50;;;;;;;18.43;52.91;96809.00;1694909;84;21071;-83
2021/09/10 08:21:21;;;;;;;3.80;2.50;;;;;;;18.53;53.90;96810.58;1679758;84;21046;-83
2021/09/10 08:23:46;;;;;;;5.37;2.47;;;;;;;18.61;53.21;96806.86;1684952;84;21422;-83
2021/09/10 08:26:12;;;;;;;4.55;2.70;;;;;;;18.69;52.02;96801.30;1683518;84;21045;-83
2021/09/10 08:28:38;;;;;;;3.40;2.37;;;;;;;18.83;51.46;96796.67;1668273;84;21129;-83
2021/09/10 08:31:04;;;;;;;5.28;2.42;;;;;;;18.98;50.22;96806.28;1684661;84;21004;-83
2021/09/10 08:33:29;;;;;;;4.75;2.80;;;;;;;19.11;50.78;96805.30;1703695;84;21023;-83
2021/09/10 08:35:55;;;;;;;3.65;2.50;;;;;;;19.23;50.54;96801.39;1694200;84;20997;-83
2021/09/10 08:38:21;;;;;;;2.72;2.47;;;;;;;19.33;49.33;96804.25;1679078;84;21017;-83
2021/09/10 08:40:47;;;;;;;4.33;2.47;;;;;;;19.43;49.39;96795.28;1655615;84;21350;-83
2021/09/10 08:43:14;;;;;;;4.03;2.40;;;;;;;19.54;50.79;96792.39;1683123;84;21023;-83
2021/09/10 08:45:40;;;;;;;4.87;2.75;;;;;;;19.58;52.44;96794.88;1678969;84;21139;-83
2021/09/10 08:48:06;;;;;;;4.35;2.35;;;;;;;19.56;51.99;96795.11;1679998;84;21071;-83
2021/09/10 08:50:32;;;;;;;4.08;2.60;;;;;;;19.61;49.49;96795.73;1691014;84;21380;-83
2021/09/10 08:52:57;;;;;;;5.40;3.00;;;;;;;19.72;48.07;96797.58;1700069;84;21047;-83
2021/09/10 08:55:23;;;;;;;4.08;2.83;;;;;;;19.84;48.84;96794.41;1672095;84;21023;-84
2021/09/10 08:57:54;;;;;;;4.62;2.92;;;;;;;19.92;48.21;96797.22;1667967;84;21034;-84
2021/09/10 09:00:31;;;;;;;6.92;2.72;;;;;;;19.99;48.50;96803.17;1683933;84;21027;-84
2021/09/10 09:03:04;;;;;;;3.58;2.58;;;;;;;20.03;50.11;96800.37;1703720;84;20996;-83
2021/09/10 09:05:30;;;;;;;3.75;2.50;;;;;;;20.08;49.45;96797.33;1675493;84;21002;-83
2021/09/10 09:08:16;;;;;;;4.53;2.77;;;;;;;20.12;49.24;96798.17;1669212;85;21375;-83
2021/09/10 09:11:00;;;;;;;5.47;3.20;;;;;;;20.18;48.54;96799.91;1686220;84;21082;-83
2021/09/10 09:13:33;;;;;;;5.10;2.92;;;;;;;20.26;48.84;96796.89;1685987;84;21162;-84
2021/09/10 09:16:28;;;;;;;4.05;2.80;;;;;;;20.35;49.17;96797.63;1663302;85;21164;-84
2021/09/10 09:19:03;;;;;;;4.00;2.52;;;;;;;20.40;47.92;96802.20;1676838;84;21071;-83
2021/09/10 09:21:38;;;;;;;3.30;2.50;;;;;;;20.46;47.74;96798.65;1691287;84;21127;-84
2021/09/10 09:24:21;;;;;;;4.12;2.30;;;;;;;20.52;47.58;96792.45;1676889;84;21446;-84
2021/09/10 09:26:51;;;;;;;3.37;3.05;;;;;;;20.60;47.94;96792.06;1679057;84;21454;-83
2021/09/10 09:29:19;;;;;;;3.17;2.85;;;;;;;20.67;48.54;96794.06;1692257;84;21110;-84
2021/09/10 09:31:58;;;;;;;5.20;2.72;;;;;;;20.73;47.11;96796.27;1673511;84;21060;-83
2021/09/10 09:34:48;;;;;;;4.33;2.70;;;;;;;20.81;47.11;96787.16;1687975;84;21422;-84
2021/09/10 09:37:16;;;;;;;4.72;2.58;;;;;;;20.88;48.19;96787.83;1675255;84;21070;-83
2021/09/10 09:40:00;;;;;;;4.08;3.08;;;;;;;20.93;45.86;96787.91;1683914;84;21403;-84
2021/09/10 09:42:31;;;;;;;4.78;3.00;;;;;;;21.00;46.32;96783.83;1665350;84;21033;-84
2021/09/10 09:45:14;;;;;;;4.47;2.60;;;;;;;21.07;48.59;96781.82;1687013;84;21043;-84
2021/09/10 09:47:40;;;;;;;4.08;3.02;;;;;;;21.11;49.01;96784.26;1668166;84;21389;-84
2021/09/10 09:50:08;;;;;;;3.72;2.27;;;;;;;21.14;47.93;96779.81;1682955;84;21059;-84
2021/09/10 09:52:34;;;;;;;4.37;2.35;;;;;;;21.19;44.79;96786.00;1704952;83;21082;-84
2021/09/10 09:54:59;;;;;;;3.95;2.08;;;;;;;21.27;44.47;96783.50;1708859;83;21111;-83
2021/09/10 09:57:25;;;;;;;4.05;2.20;;;;;;;21.38;46.24;96791.89;1686562;84;21424;-84
2021/09/10 09:59:51;;;;;;;2.90;2.52;;;;;;;21.49;44.86;96796.83;1688498;83;21019;-83
2021/09/10 10:02:17;;;;;;;3.20;2.10;;;;;;;21.58;43.73;96787.44;1694835;84;21063;-84
2021/09/10 10:04:43;;;;;;;3.55;2.70;;;;;;;21.65;43.68;96785.97;1711325;83;21365;-84
2021/09/10 10:07:08;;;;;;;4.35;2.65;;;;;;;21.72;44.68;96787.39;1713594;83;21474;-83
2021/09/10 10:09:34;;;;;;;5.62;2.35;;;;;;;21.78;44.99;96785.09;1695512;83;21065;-84
2021/09/10 10:12:00;;;;;;;3.22;2.70;;;;;;;21.82;44.71;96777.48;1714643;83;21070;-84
2021/09/10 10:14:34;;;;;;;3.20;2.20;;;;;;;21.85;45.79;96784.41;1709736;83;21447;-84
2021/09/10 10:17:03;;;;;;;4.20;2.25;;;;;;;21.88;43.13;96781.27;1720803;83;21470;-84
2021/09/10 10:19:42;;;;;;;4.50;2.30;;;;;;;21.95;43.15;96781.09;1700586;83;21457;-84
2021/09/10 10:22:10;;;;;;;3.30;2.22;;;;;;;22.02;42.21;96782.25;1681924;84;20952;-84
2021/09/10 10:24:57;;;;;;;2.60;2.25;;;;;;;22.08;41.89;96783.41;1685502;84;21271;-84
2021/09/10 10:27:39;;;;;;;3.67;2.10;;;;;;;22.18;42.04;96782.77;1678721;84;21004;-84
2021/09/10 10:30:11;;;;;;;;;;;;;;;22.27;42.52;96783.12;1683528;84;21024;-84
2021/09/10 10:32:43;;;;;;;3.45;2.47;;;;;;;22.27;41.67;96775.98;1646269;85;20315;-84
2021/09/10 10:35:26;;;;;;;3.33;2.40;;;;;;;22.31;42.98;96781.61;1672245;84;21077;-84
2021/09/10 10:38:08;;;;;;;4.08;2.40;;;;;;;22.37;42.55;96781.94;1669845;84;21064;-84
2021/09/10 10:40:44;;;;;;;3.47;2.60;;;;;;;22.44;42.02;96775.91;1691998;84;21047;-84
2021/09/10 10:43:27;;;;;;;3.67;2.35;;;;;;;22.50;42.32;96780.77;1664897;84;21180;-84
2021/09/10 10:46:04;;;;;;;8.75;6.12;;;;;;;22.54;42.09;96780.02;1652863;86;21439;-84
2021/09/10 10:48:39;;;;;;;5.12;4.25;;;;;;;22.60;40.98;96779.02;1656515;85;21074;-84
2021/09/10 10:51:22;;;;;;;3.47;2.62;;;;;;;22.66;41.17;96779.89;1691468;84;21124;-84
2021/09/10 10:53:56;;;;;;;5.30;2.17;;;;;;;22.72;41.05;96776.23;1686714;83;21403;-84
2021/09/10 10:56:32;;;;;;;4.47;2.37;;;;;;;22.75;40.06;96771.76;1698683;83;21375;-83
2021/09/10 10:59:19;;;;;;;4.12;2.50;;;;;;;22.80;40.12;96767.05;1694655;83;20995;-84
2021/09/10 11:02:20;;;;;;;3.55;2.42;;;;;;;22.86;40.70;96769.53;1712389;83;21479;-84
2021/09/10 11:04:52;;;;;;;5.17;2.65;;;;;;;22.91;39.45;96770.09;1678228;84;21051;-84
2021/09/10 11:07:21;;;;;;;4.20;2.22;;;;;;;22.95;39.13;96762.73;1664740;84;21429;-84
2021/09/10 11:10:09;;;;;;;3.92;2.05;;;;;;;22.98;40.02;96769.38;1679899;84;21025;-84
2021/09/10 11:12:37;;;;;;;3.00;2.35;;;;;;;23.02;40.68;96763.32;1688362;84;21068;-84
2021/09/10 11:15:25;;;;;;;3.40;2.17;;;;;;;23.10;38.99;96765.23;1713938;83;21074;-84
2021/09/10 11:18:04;;;;;;;4.75;2.60;;;;;;;23.10;39.60;96760.73;1680334;84;21047;-84
2021/09/10 11:20:44;;;;;;;3.20;2.40;;;;;;;23.15;39.21;96758.66;1694896;84;21131;-84
2021/09/10 11:23:13;;;;;;;3.15;1.98;;;;;;;23.17;39.13;96757.88;1690568;84;20998;-84
2021/09/10 11:25:51;;;;;;;4.35;2.72;;;;;;;23.17;42.45;96756.03;1656406;85;21091;-84
2021/09/10 11:28:17;;;;;;;3.40;2.67;;;;;;;23.14;40.19;96749.92;1657407;85;21136;-84
2021/09/10 11:30:45;;;;;;;3.08;2.40;;;;;;;23.17;41.40;96747.28;1669689;85;21430;-84
2021/09/10 11:33:11;;;;;;;4.28;2.80;;;;;;;23.21;42.91;96744.39;1681223;84;21098;-84
2021/09/10 11:35:38;;;;;;;3.10;2.58;;;;;;;23.23;45.18;96740.95;1676535;84;21424;-84
2021/09/10 11:38:14;;;;;;;3.87;2.50;;;;;;;23.23;43.91;96744.41;1668813;85;21090;-84